Time;durP1;ratioP1;P1;durP2;ratioP2;P2;SDS_P1;SDS_P2;PMS_P1;PMS_P2;Temp;Humidity;BMP_temperature;BMP_pressure;BME280_temperature;BME280_humidity;BME280_pressure;Samples;Min_cycle;Max_cycle;Signal;HPM_P1;HPM_P2
2022/01/15 00:02:51;;;;;;;20.70;12.63;;;;;;;;;;6185185;23;20080;-80
2022/01/15 00:05:31;;;;;;;18.48;11.93;;;;;;;;;;6177131;23;19997;-80
2022/01/15 00:08:28;;;;;;;33.53;19.95;;;;;;;;;;6184668;23;20370;-80
2022/01/15 00:11:13;;;;;;;;;;;;;;;;;;;;;
2022/01/15 00:14:23;;;;;;;16.40;10.77;;;;;;;;;;6184604;23;20077;-80
2022/01/15 00:17:06;;;;;;;20.70;15.00;;;;;;;;;;6185149;23;20020;-80
2022/01/15 00:19:43;;;;;;;19.77;14.85;;;;;;;;;;6185587;23;20008;-80
2022/01/15 00:22:09;;;;;;;29.17;18.67;;;;;;;;;;6184911;23;20028;-80
2022/01/15 00:24:35;;;;;;;21.25;14.32;;;;;;;;;;6186371;23;20091;-80
2022/01/15 00:27:01;;;;;;;25.75;15.43;;;;;;;;;;6184882;23;20317;-80
2022/01/15 00:29:32;;;;;;;20.80;12.35;;;;;;;;;;6158962;23;20489;-80
2022/01/15 00:31:59;;;;;;;21.38;13.13;;;;;;;;;;6184575;23;20005;-79
2022/01/15 00:34:25;;;;;;;19.73;12.88;;;;;;;;;;6158746;23;20005;-80
2022/01/15 00:36:51;;;;;;;21.10;12.98;;;;;;;;;;6184418;23;20068;-80
2022/01/15 00:39:17;;;;;;;18.08;12.38;;;;;;;;;;6160147;23;20020;-80
2022/01/15 00:41:46;;;;;;;17.85;11.32;;;;;;;;;;6186476;23;19997;-80
2022/01/15 00:44:12;;;;;;;16.85;12.57;;;;;;;;;;6186979;23;20060;-79
2022/01/15 00:46:38;;;;;;;18.25;12.20;;;;;;;;;;6160394;23;20005;-81
2022/01/15 00:49:12;;;;;;;13.25;8.25;;;;;;;;;;6187131;23;20013;-81
2022/01/15 00:51:40;;;;;;;18.20;10.07;;;;;;;;;;6186834;23;20013;-77
2022/01/15 00:54:06;;;;;;;15.52;8.60;;;;;;;;;;6187016;23;20008;-79
2022/01/15 00:56:35;;;;;;;16.40;9.90;;;;;;;;;;6187248;23;19997;-77
2022/01/15 01:02:28;;;;;;;15.15;8.93;;;;;;;;;;6186654;23;20520;-77
2022/01/15 01:05:21;;;;;;;12.23;8.15;;;;;;;;;;6186286;23;20437;-79
2022/01/15 01:08:17;;;;;;;;;;;;;;;;;;;;;
2022/01/15 01:22:11;;;;;;;13.77;8.05;;;;;;;;;;6186730;23;20344;-80
2022/01/15 01:24:19;;;;;;;13.15;8.20;;;;;;;;;;6185922;23;20005;-80
2022/01/15 01:32:39;;;;;;;9.57;6.32;;;;;;;;;;6186088;23;20024;-78
2022/01/15 01:35:14;;;;;;;11.80;6.57;;;;;;;;;;6159309;23;20063;-78
2022/01/15 01:37:45;;;;;;;13.90;9.05;;;;;;;;;;6186380;23;20009;-81
2022/01/15 01:40:22;;;;;;;15.45;8.65;;;;;;;;;;6185660;23;20017;-80
2022/01/15 01:42:58;;;;;;;13.57;8.18;;;;;;;;;;6186439;23;20068;-81
2022/01/15 01:45:24;;;;;;;13.73;8.57;;;;;;;;;;6186467;23;20001;-80
2022/01/15 01:47:55;;;;;;;12.75;8.13;;;;;;;;;;6186738;23;20028;-79
2022/01/15 01:50:23;;;;;;;12.23;7.00;;;;;;;;;;6185682;23;20020;-79
2022/01/15 01:52:50;;;;;;;10.63;6.07;;;;;;;;;;6185721;23;20004;-80
2022/01/15 01:55:18;;;;;;;11.15;6.20;;;;;;;;;;6186247;23;20124;-80
2022/01/15 02:00:29;;;;;;;;;;;;;;;;;;6186419;23;20475;-80
2022/01/15 02:02:56;;;;;;;10.85;6.50;;;;;;;;;;6186031;23;19904;-79
2022/01/15 02:05:23;;;;;;;7.60;5.10;;;;;;;;;;6186111;23;20369;-80
2022/01/15 02:07:49;;;;;;;10.35;6.03;;;;;;;;;;6185850;23;20004;-79
2022/01/15 02:13:18;;;;;;;26.67;13.95;;;;;;;;;;6185954;23;20318;-80
2022/01/15 02:15:56;;;;;;;14.40;8.25;;;;;;;;;;6185785;23;19993;-79
2022/01/15 02:24:18;;;;;;;8.68;5.40;;;;;;;;;;6195743;23;20009;-80
2022/01/15 02:26:51;;;;;;;8.20;5.40;;;;;;;;;;6185871;23;20336;-80
2022/01/15 02:29:35;;;;;;;;;;;;;;;;;;;;;
2022/01/15 02:32:08;;;;;;;7.97;5.78;;;;;;;;;;6185589;23;20409;-80
2022/01/15 02:34:57;;;;;;;7.78;5.28;;;;;;;;;;6185713;23;20004;-80
2022/01/15 02:37:21;;;;;;;8.38;5.15;;;;;;;;;;6184359;23;20328;-79
2022/01/15 02:39:47;;;;;;;8.30;5.43;;;;;;;;;;6172412;23;20048;-80
2022/01/15 02:42:13;;;;;;;10.00;5.85;;;;;;;;;;6155599;23;20002;-80
2022/01/15 02:51:05;;;;;;;9.60;4.80;;;;;;;;;;6157934;23;20385;-78
2022/01/15 02:54:07;;;;;;;;;;;;;;;;;;;;;
2022/01/15 02:56:43;;;;;;;;;;;;;;;;;;;;;
2022/01/15 02:59:31;;;;;;;;;;;;;;;;;;;;;
2022/01/15 03:02:21;;;;;;;6.30;4.25;;;;;;;;;;6155289;23;20093;-81
2022/01/15 03:04:50;;;;;;;5.78;3.40;;;;;;;;;;6155497;23;20001;-82
2022/01/15 03:07:36;;;;;;;;;;;;;;;;;;;;;
2022/01/15 03:16:36;;;;;;;7.00;4.05;;;;;;;;;;6144646;23;20365;-80
2022/01/15 03:19:02;;;;;;;6.25;3.67;;;;;;;;;;6155280;23;20378;-80
2022/01/15 03:21:28;;;;;;;5.70;3.30;;;;;;;;;;6155548;23;20002;-79
2022/01/15 03:24:05;;;;;;;5.07;2.72;;;;;;;;;;6155445;23;20315;-81
2022/01/15 03:26:43;;;;;;;;;;;;;;;;;;;;;
2022/01/15 03:29:29;;;;;;;7.05;4.03;;;;;;;;;;6155382;23;20069;-80
2022/01/15 03:32:05;;;;;;;5.28;3.00;;;;;;;;;;6155246;23;20001;-81
2022/01/15 03:34:54;;;;;;;5.82;3.15;;;;;;;;;;6155347;23;20049;-80
2022/01/15 03:37:22;;;;;;;5.05;2.92;;;;;;;;;;6155442;23;19998;-79
2022/01/15 03:39:48;;;;;;;6.25;4.18;;;;;;;;;;6141926;23;20020;-79
2022/01/15 03:42:17;;;;;;;5.75;3.40;;;;;;;;;;6158361;23;20472;-81
2022/01/15 03:44:47;;;;;;;4.90;3.30;;;;;;;;;;6185139;23;19997;-78
2022/01/15 03:47:41;;;;;;;5.63;3.60;;;;;;;;;;6157915;23;20002;-79
2022/01/15 03:50:08;;;;;;;7.15;4.20;;;;;;;;;;6113194;23;20009;-78
2022/01/15 03:52:38;;;;;;;6.15;3.90;;;;;;;;;;6184874;23;20005;-78
2022/01/15 03:55:15;;;;;;;6.00;4.18;;;;;;;;;;6184908;23;20016;-79
2022/01/15 03:58:10;;;;;;;;;;;;;;;;;;;;;
2022/01/15 04:00:59;;;;;;;5.70;3.53;;;;;;;;;;6184476;23;20072;-78
2022/01/15 04:03:52;;;;;;;;;;;;;;;;;;;;;
2022/01/15 04:06:27;;;;;;;6.15;3.92;;;;;;;;;;6185127;23;20097;-79
2022/01/15 04:12:01;;;;;;;;;;;;;;;;;;;;;
2022/01/15 04:14:32;;;;;;;6.93;4.07;;;;;;;;;;6184499;23;20084;-80
2022/01/15 04:17:00;;;;;;;5.55;3.70;;;;;;;;;;6184887;23;20075;-77
2022/01/15 04:20:06;;;;;;;;;;;;;;;;;;;;;
2022/01/15 04:22:42;;;;;;;;;;;;;;;;;;6181567;23;20080;-80
2022/01/15 04:25:45;;;;;;;5.40;3.50;;;;;;;;;;6184887;23;20367;-80
2022/01/15 04:28:21;;;;;;;6.40;4.05;;;;;;;;;;6184443;23;20364;-80
2022/01/15 04:31:04;;;;;;;;;;;;;;;;;;;;;
2022/01/15 04:33:33;;;;;;;6.25;3.60;;;;;;;;;;6184673;23;20084;-79
2022/01/15 04:36:05;;;;;;;5.75;3.60;;;;;;;;;;6183817;23;20060;-78
2022/01/15 04:38:37;;;;;;;4.80;3.55;;;;;;;;;;6184467;23;20056;-81
2022/01/15 04:41:04;;;;;;;7.63;4.28;;;;;;;;;;6184557;23;20013;-79
2022/01/15 04:43:32;;;;;;;7.25;4.68;;;;;;;;;;6184151;23;20453;-78
2022/01/15 04:46:03;;;;;;;8.50;3.63;;;;;;;;;;6184391;23;20008;-79
2022/01/15 04:48:50;;;;;;;9.13;4.00;;;;;;;;;;6184067;23;20015;-79
2022/01/15 04:51:35;;;;;;;6.95;4.50;;;;;;;;;;6183640;23;20448;-79
2022/01/15 04:54:02;;;;;;;7.63;3.40;;;;;;;;;;6184752;23;19997;-77
2022/01/15 04:56:28;;;;;;;7.45;4.32;;;;;;;;;;6184427;23;19997;-78
2022/01/15 04:58:57;;;;;;;5.53;4.25;;;;;;;;;;6184772;23;20005;-78
2022/01/15 05:01:24;;;;;;;5.93;3.88;;;;;;;;;;6184192;23;19997;-81
2022/01/15 05:03:50;;;;;;;8.77;3.47;;;;;;;;;;6184212;23;20007;-81
2022/01/15 05:06:18;;;;;;;6.78;3.88;;;;;;;;;;6183818;23;20332;-78
2022/01/15 05:08:51;;;;;;;6.45;3.95;;;;;;;;;;6184418;23;20328;-77
2022/01/15 05:14:07;;;;;;;4.60;3.60;;;;;;;;;;6184161;23;20020;-78
2022/01/15 05:16:33;;;;;;;6.45;3.25;;;;;;;;;;6184117;23;20072;-79
2022/01/15 05:18:59;;;;;;;9.10;4.95;;;;;;;;;;6184120;23;20005;-77
2022/01/15 05:21:28;;;;;;;12.52;7.90;;;;;;;;;;6184330;23;20012;-77
2022/01/15 05:23:54;;;;;;;9.55;5.68;;;;;;;;;;6183950;23;20109;-77
2022/01/15 05:26:20;;;;;;;7.22;4.68;;;;;;;;;;6186038;23;19997;-78
2022/01/15 05:28:46;;;;;;;7.45;5.32;;;;;;;;;;6185623;23;20080;-78
2022/01/15 05:31:12;;;;;;;8.45;4.78;;;;;;;;;;6185923;23;20005;-78
2022/01/15 05:33:38;;;;;;;7.05;4.38;;;;;;;;;;6186005;23;20004;-77
2022/01/15 05:36:04;;;;;;;9.35;4.95;;;;;;;;;;6185731;23;20041;-78
2022/01/15 05:38:33;;;;;;;8.65;4.63;;;;;;;;;;6186153;23;20025;-79
2022/01/15 05:40:59;;;;;;;8.15;5.65;;;;;;;;;;6185792;23;20009;-78
2022/01/15 05:43:25;;;;;;;5.82;4.10;;;;;;;;;;6186010;23;20009;-77
2022/01/15 05:45:51;;;;;;;7.72;4.90;;;;;;;;;;6185731;23;20391;-78
2022/01/15 05:48:20;;;;;;;8.25;4.05;;;;;;;;;;6185645;23;20005;-78
2022/01/15 05:50:47;;;;;;;8.90;4.95;;;;;;;;;;6185492;23;20378;-77
2022/01/15 05:53:13;;;;;;;7.47;4.97;;;;;;;;;;6185989;23;19997;-78
2022/01/15 05:55:39;;;;;;;6.63;4.72;;;;;;;;;;6186019;23;20302;-78
2022/01/15 05:58:07;;;;;;;9.10;4.70;;;;;;;;;;6185791;23;20129;-79
2022/01/15 06:00:33;;;;;;;7.43;4.85;;;;;;;;;;6185773;23;20009;-78
2022/01/15 06:03:02;;;;;;;9.63;5.45;;;;;;;;;;6185608;23;20021;-79
2022/01/15 06:05:28;;;;;;;8.35;5.47;;;;;;;;;;6186299;23;19997;-79
2022/01/15 06:07:55;;;;;;;9.38;6.13;;;;;;;;;;6185318;23;20004;-77
2022/01/15 06:10:21;;;;;;;8.48;5.35;;;;;;;;;;6185651;23;20012;-78
2022/01/15 06:12:50;;;;;;;10.25;5.53;;;;;;;;;;6185742;23;20399;-77
2022/01/15 06:15:16;;;;;;;9.73;6.20;;;;;;;;;;6173634;23;20491;-78
2022/01/15 06:17:45;;;;;;;9.32;5.53;;;;;;;;;;6185174;23;20001;-78
2022/01/15 06:20:13;;;;;;;9.43;6.25;;;;;;;;;;6185364;23;20002;-77
2022/01/15 06:22:39;;;;;;;10.98;5.75;;;;;;;;;;6185369;23;20425;-77
2022/01/15 06:25:05;;;;;;;6.75;4.55;;;;;;;;;;6185336;23;20003;-79
2022/01/15 06:27:32;;;;;;;13.93;9.38;;;;;;;;;;6185357;23;20437;-76
2022/01/15 06:29:58;;;;;;;11.68;7.07;;;;;;;;;;6185022;23;20001;-78
2022/01/15 06:32:25;;;;;;;10.90;6.97;;;;;;;;;;6185517;23;20420;-78
2022/01/15 06:34:52;;;;;;;14.38;8.52;;;;;;;;;;6185125;23;20004;-80
2022/01/15 06:37:18;;;;;;;12.65;6.80;;;;;;;;;;6185108;23;20445;-80
2022/01/15 06:39:45;;;;;;;16.10;9.88;;;;;;;;;;6172863;23;20021;-79
2022/01/15 06:42:14;;;;;;;21.70;11.43;;;;;;;;;;6139182;23;20001;-79
2022/01/15 06:44:40;;;;;;;14.98;7.82;;;;;;;;;;6155570;23;20456;-81
2022/01/15 06:47:10;;;;;;;11.18;8.45;;;;;;;;;;6155223;23;20014;-80
2022/01/15 06:49:37;;;;;;;12.27;8.45;;;;;;;;;;6143624;23;19994;-79
2022/01/15 06:52:03;;;;;;;13.60;8.95;;;;;;;;;;6155136;23;20013;-79
2022/01/15 06:54:29;;;;;;;9.27;6.43;;;;;;;;;;6155444;23;20057;-80
2022/01/15 06:56:55;;;;;;;11.63;7.28;;;;;;;;;;6155082;23;20006;-80
2022/01/15 06:59:22;;;;;;;10.20;7.10;;;;;;;;;;6155458;23;20001;-79
2022/01/15 07:01:51;;;;;;;11.55;6.82;;;;;;;;;;6155129;23;20005;-80
2022/01/15 07:04:24;;;;;;;13.25;8.40;;;;;;;;;;6154903;23;20017;-79
2022/01/15 07:06:50;;;;;;;13.15;8.65;;;;;;;;;;6155366;23;20068;-79
2022/01/15 07:09:16;;;;;;;12.35;7.22;;;;;;;;;;6155239;23;20005;-78
2022/01/15 07:11:42;;;;;;;12.07;7.25;;;;;;;;;;6153984;23;20032;-79
2022/01/15 07:14:11;;;;;;;13.60;9.27;;;;;;;;;;6154452;23;20000;-78
2022/01/15 07:16:40;;;;;;;18.27;11.32;;;;;;;;;;6155120;23;20002;-78
2022/01/15 07:19:08;;;;;;;11.57;8.15;;;;;;;;;;6154816;23;20005;-84
2022/01/15 07:21:34;;;;;;;15.60;9.90;;;;;;;;;;6155498;23;20008;-77
2022/01/15 07:24:00;;;;;;;12.77;9.05;;;;;;;;;;6154722;23;20073;-77
2022/01/15 07:26:26;;;;;;;11.07;8.13;;;;;;;;;;6154636;23;20032;-80
2022/01/15 07:28:53;;;;;;;16.40;10.65;;;;;;;;;;6155132;23;20307;-81
2022/01/15 07:31:21;;;;;;;20.02;13.18;;;;;;;;;;6154625;23;20009;-79
2022/01/15 07:33:47;;;;;;;15.82;10.10;;;;;;;;;;6154663;23;20425;-77
2022/01/15 07:36:13;;;;;;;14.75;11.05;;;;;;;;;;6154740;23;19998;-81
2022/01/15 07:38:39;;;;;;;19.55;13.23;;;;;;;;;;6155132;23;20001;-80
2022/01/15 07:41:11;;;;;;;15.35;10.75;;;;;;;;;;6154933;23;20016;-79
2022/01/15 07:43:37;;;;;;;16.83;11.10;;;;;;;;;;6154315;23;20008;-80
2022/01/15 07:46:03;;;;;;;17.80;10.60;;;;;;;;;;6154783;23;20001;-79
2022/01/15 07:48:29;;;;;;;13.60;8.52;;;;;;;;;;6154170;23;20017;-80
2022/01/15 07:50:56;;;;;;;15.85;10.52;;;;;;;;;;6154704;23;20496;-77
2022/01/15 07:53:22;;;;;;;13.77;9.45;;;;;;;;;;6154604;23;20005;-78
2022/01/15 07:55:50;;;;;;;15.20;10.57;;;;;;;;;;6154944;23;20021;-78
2022/01/15 08:01:05;;;;;;;11.70;8.18;;;;;;;;;;6155093;23;20013;-79
2022/01/15 08:03:32;;;;;;;13.45;8.13;;;;;;;;;;6154373;23;20010;-78
2022/01/15 08:05:58;;;;;;;14.63;10.88;;;;;;;;;;6154507;23;20029;-79
2022/01/15 08:08:29;;;;;;;17.80;11.73;;;;;;;;;;6154107;23;20084;-77
2022/01/15 08:10:56;;;;;;;14.73;10.40;;;;;;;;;;6153438;23;20053;-78
2022/01/15 08:13:25;;;;;;;13.68;8.95;;;;;;;;;;6154402;23;20343;-78
2022/01/15 08:15:52;;;;;;;15.73;11.05;;;;;;;;;;6154809;23;20057;-80
2022/01/15 08:18:21;;;;;;;17.95;11.90;;;;;;;;;;6154505;23;20390;-78
2022/01/15 08:20:50;;;;;;;14.13;10.52;;;;;;;;;;6128365;23;20002;-77
2022/01/15 08:23:16;;;;;;;14.50;8.25;;;;;;;;;;6154574;23;20025;-78
2022/01/15 08:25:42;;;;;;;15.48;10.98;;;;;;;;;;6154126;23;20008;-76
2022/01/15 08:28:08;;;;;;;13.02;8.85;;;;;;;;;;6154989;23;20029;-76
2022/01/15 08:30:37;;;;;;;13.48;9.68;;;;;;;;;;6154065;23;20012;-79
2022/01/15 08:33:06;;;;;;;16.65;11.80;;;;;;;;;;6154688;23;20009;-77
2022/01/15 08:35:32;;;;;;;14.18;10.13;;;;;;;;;;6154364;23;20010;-77
2022/01/15 08:38:03;;;;;;;15.63;11.05;;;;;;;;;;6154852;23;19998;-78
2022/01/15 08:40:29;;;;;;;12.80;8.98;;;;;;;;;;6153933;23;20318;-77
2022/01/15 08:42:56;;;;;;;14.82;10.93;;;;;;;;;;6154596;23;20344;-77
2022/01/15 08:45:22;;;;;;;14.65;11.90;;;;;;;;;;6154717;23;20085;-78
2022/01/15 08:47:48;;;;;;;16.35;12.77;;;;;;;;;;6128534;23;20456;-77
2022/01/15 08:50:15;;;;;;;13.18;10.30;;;;;;;;;;6142885;23;20020;-77
2022/01/15 08:52:43;;;;;;;15.90;11.70;;;;;;;;;;6154102;23;20020;-76
2022/01/15 08:55:11;;;;;;;14.40;10.60;;;;;;;;;;6128065;23;20319;-78
2022/01/15 08:57:38;;;;;;;15.52;11.43;;;;;;;;;;6154215;23;20004;-79
2022/01/15 09:00:06;;;;;;;13.98;9.02;;;;;;;;;;6155762;23;20307;-78
2022/01/15 09:02:32;;;;;;;18.20;11.30;;;;;;;;;;6156037;23;20009;-77
2022/01/15 09:04:58;;;;;;;14.35;9.63;;;;;;;;;;6156572;23;20035;-77
2022/01/15 09:07:24;;;;;;;13.30;9.13;;;;;;;;;;6156092;23;20005;-78
2022/01/15 09:09:51;;;;;;;15.38;11.77;;;;;;;;;;6156046;23;20422;-78
2022/01/15 09:12:19;;;;;;;16.00;10.75;;;;;;;;;;6155688;23;20329;-82
2022/01/15 09:14:45;;;;;;;13.98;9.68;;;;;;;;;;6155538;23;20004;-78
2022/01/15 09:17:12;;;;;;;16.48;10.23;;;;;;;;;;6156045;23;20010;-74
2022/01/15 09:19:38;;;;;;;10.25;7.65;;;;;;;;;;6129965;23;20016;-78
2022/01/15 09:22:11;;;;;;;19.42;10.48;;;;;;;;;;6156171;23;20034;-77
2022/01/15 09:24:37;;;;;;;14.45;9.23;;;;;;;;;;6155310;23;20421;-78
2022/01/15 09:30:12;;;;;;;15.00;9.82;;;;;;;;;;6155927;23;20098;-77
2022/01/15 09:32:36;;;;;;;16.45;10.27;;;;;;;;;;6155724;23;20467;-79
2022/01/15 09:35:03;;;;;;;23.10;14.57;;;;;;;;;;6129661;23;20009;-76
2022/01/15 09:37:29;;;;;;;15.48;8.90;;;;;;;;;;6156101;23;19997;-75
2022/01/15 09:39:57;;;;;;;15.45;10.35;;;;;;;;;;6155795;23;20463;-76
2022/01/15 09:42:26;;;;;;;16.33;10.95;;;;;;;;;;6156375;23;20333;-77
2022/01/15 09:44:55;;;;;;;20.85;12.35;;;;;;;;;;6155944;23;20426;-77
2022/01/15 09:47:23;;;;;;;17.15;11.93;;;;;;;;;;6155922;23;20036;-79
2022/01/15 09:49:52;;;;;;;10.60;7.00;;;;;;;;;;6154904;23;20384;-77
2022/01/15 09:52:19;;;;;;;19.60;11.88;;;;;;;;;;6155579;23;20020;-76
2022/01/15 09:54:47;;;;;;;16.70;10.48;;;;;;;;;;6155331;23;20021;-76
2022/01/15 09:57:13;;;;;;;16.48;7.38;;;;;;;;;;6154746;23;20077;-77
2022/01/15 09:59:39;;;;;;;13.30;10.15;;;;;;;;;;6156029;23;20069;-81
2022/01/15 10:02:05;;;;;;;14.30;9.77;;;;;;;;;;6155707;23;20005;-78
2022/01/15 10:04:32;;;;;;;21.83;15.02;;;;;;;;;;6156019;23;20005;-77
2022/01/15 10:07:17;;;;;;;15.30;10.15;;;;;;;;;;6155753;23;20012;-81
2022/01/15 10:09:45;;;;;;;15.55;10.65;;;;;;;;;;6155107;23;20414;-79
2022/01/15 10:12:12;;;;;;;13.52;8.98;;;;;;;;;;6155182;23;20341;-77
2022/01/15 10:14:38;;;;;;;14.27;9.07;;;;;;;;;;6155602;23;20426;-77
2022/01/15 10:17:21;;;;;;;15.90;11.65;;;;;;;;;;6155112;23;20012;-79
2022/01/15 10:19:48;;;;;;;10.80;7.90;;;;;;;;;;6155346;23;19997;-76
2022/01/15 10:22:18;;;;;;;13.35;9.63;;;;;;;;;;6155433;23;20069;-78
2022/01/15 10:25:06;;;;;;;16.38;9.50;;;;;;;;;;6155338;23;19993;-75
2022/01/15 10:27:34;;;;;;;16.35;11.60;;;;;;;;;;6155192;23;20057;-78
2022/01/15 10:30:08;;;;;;;19.88;12.95;;;;;;;;;;6155213;23;20421;-79
2022/01/15 10:32:40;;;;;;;12.73;9.10;;;;;;;;;;6155398;23;20005;-77
2022/01/15 10:35:10;;;;;;;15.18;9.52;;;;;;;;;;6155426;23;20006;-77
2022/01/15 10:37:46;;;;;;;21.55;12.02;;;;;;;;;;6155813;23;20441;-76
2022/01/15 10:40:12;;;;;;;13.23;9.68;;;;;;;;;;6154342;23;20453;-77
2022/01/15 10:42:42;;;;;;;11.52;8.30;;;;;;;;;;6155059;23;20002;-77
2022/01/15 10:45:12;;;;;;;14.68;10.27;;;;;;;;;;6154722;23;20033;-76
2022/01/15 10:47:44;;;;;;;18.23;12.25;;;;;;;;;;6155463;23;20013;-77
2022/01/15 10:50:18;;;;;;;13.43;8.73;;;;;;;;;;6155132;23;20064;-77
2022/01/15 10:52:44;;;;;;;13.43;9.38;;;;;;;;;;6155252;23;20072;-77
2022/01/15 10:55:10;;;;;;;10.70;7.50;;;;;;;;;;6154679;23;20448;-76
2022/01/15 10:57:56;;;;;;;13.57;9.77;;;;;;;;;;6155191;23;20006;-77
2022/01/15 11:00:24;;;;;;;11.95;8.52;;;;;;;;;;6155028;23;20001;-78
2022/01/15 11:02:55;;;;;;;13.43;9.68;;;;;;;;;;6129133;23;20006;-80
2022/01/15 11:05:24;;;;;;;13.82;9.50;;;;;;;;;;6154848;23;20069;-77
2022/01/15 11:07:55;;;;;;;13.02;9.25;;;;;;;;;;6154769;23;20387;-82
2022/01/15 11:10:21;;;;;;;15.85;10.70;;;;;;;;;;6128690;23;20005;-77
2022/01/15 11:12:50;;;;;;;16.48;9.48;;;;;;;;;;6154641;23;20122;-77
2022/01/15 11:15:21;;;;;;;13.27;9.48;;;;;;;;;;6154236;23;20037;-79
2022/01/15 11:17:47;;;;;;;13.15;9.40;;;;;;;;;;6155082;23;20437;-78
2022/01/15 11:20:14;;;;;;;17.00;11.65;;;;;;;;;;6154763;23;20053;-77
2022/01/15 11:22:43;;;;;;;14.52;10.20;;;;;;;;;;6154423;23;20048;-77
2022/01/15 11:25:11;;;;;;;21.77;14.43;;;;;;;;;;6154302;23;20004;-77
2022/01/15 11:27:38;;;;;;;13.43;9.70;;;;;;;;;;6154282;23;20029;-77
2022/01/15 11:30:04;;;;;;;13.10;8.38;;;;;;;;;;6154384;23;20436;-78
2022/01/15 11:32:31;;;;;;;13.35;8.90;;;;;;;;;;6154581;23;20013;-78
2022/01/15 11:35:04;;;;;;;15.68;9.10;;;;;;;;;;6154187;23;20095;-78
2022/01/15 11:37:39;;;;;;;9.10;6.73;;;;;;;;;;6154852;23;20337;-79
2022/01/15 11:40:28;;;;;;;16.73;9.70;;;;;;;;;;6154425;23;20437;-78
2022/01/15 11:42:57;;;;;;;23.42;15.52;;;;;;;;;;6153423;23;20010;-78
2022/01/15 11:45:41;;;;;;;20.65;15.20;;;;;;;;;;6154454;23;20014;-78
2022/01/15 11:48:22;;;;;;;15.55;11.02;;;;;;;;;;6154142;23;20035;-75
2022/01/15 11:51:07;;;;;;;22.05;14.10;;;;;;;;;;6154203;23;20041;-77
2022/01/15 11:53:53;;;;;;;20.67;12.05;;;;;;;;;;6154209;23;20005;-78
2022/01/15 11:56:21;;;;;;;12.50;8.85;;;;;;;;;;6129399;23;20329;-78
2022/01/15 11:58:47;;;;;;;16.55;11.55;;;;;;;;;;6155811;23;20006;-79
2022/01/15 12:01:32;;;;;;;18.60;12.35;;;;;;;;;;6155253;23;19998;-81
2022/01/15 12:04:18;;;;;;;13.68;9.60;;;;;;;;;;6155565;23;19998;-78
2022/01/15 12:07:02;;;;;;;15.10;10.10;;;;;;;;;;6150104;23;20082;-79
2022/01/15 12:09:39;;;;;;;19.23;13.25;;;;;;;;;;6155478;23;20005;-78
2022/01/15 12:15:17;;;;;;;11.23;9.35;;;;;;;;;;6154100;23;20013;-76
2022/01/15 12:17:50;;;;;;;12.75;8.80;;;;;;;;;;6129137;23;20329;-81
2022/01/15 12:20:25;;;;;;;12.07;8.93;;;;;;;;;;6155514;23;20009;-74
2022/01/15 12:23:10;;;;;;;18.42;12.73;;;;;;;;;;6155207;23;20393;-77
2022/01/15 12:25:36;;;;;;;14.65;12.05;;;;;;;;;;6155462;23;20333;-77
2022/01/15 12:28:06;;;;;;;13.02;8.20;;;;;;;;;;6155071;23;20441;-78
2022/01/15 12:30:42;;;;;;;15.82;11.18;;;;;;;;;;6155260;23;20008;-79
2022/01/15 12:33:11;;;;;;;17.63;12.27;;;;;;;;;;6129857;23;20088;-78
2022/01/15 12:35:38;;;;;;;20.23;13.55;;;;;;;;;;6158668;23;20023;-79
2022/01/15 12:38:27;;;;;;;14.45;9.35;;;;;;;;;;6158482;23;20485;-78
2022/01/15 12:40:55;;;;;;;19.55;12.52;;;;;;;;;;6184545;23;20084;-77
2022/01/15 12:43:25;;;;;;;17.50;10.93;;;;;;;;;;6188387;23;20425;-78
2022/01/15 12:45:53;;;;;;;17.88;12.80;;;;;;;;;;6188296;23;19997;-77
2022/01/15 12:48:20;;;;;;;29.33;19.42;;;;;;;;;;6188412;23;20016;-76
2022/01/15 12:50:48;;;;;;;16.90;11.32;;;;;;;;;;6188210;23;20013;-77
2022/01/15 12:53:15;;;;;;;19.80;11.80;;;;;;;;;;6188547;23;20001;-76
2022/01/15 12:55:42;;;;;;;12.65;8.73;;;;;;;;;;6188225;23;19997;-78
2022/01/15 12:58:14;;;;;;;15.77;10.57;;;;;;;;;;6188451;23;20013;-77
2022/01/15 13:00:40;;;;;;;13.43;10.00;;;;;;;;;;6188485;23;20008;-77
2022/01/15 13:03:07;;;;;;;14.50;11.73;;;;;;;;;;6188133;23;20009;-76
2022/01/15 13:05:35;;;;;;;22.30;15.25;;;;;;;;;;6188593;23;20302;-79
2022/01/15 13:08:03;;;;;;;19.98;14.13;;;;;;;;;;6188387;23;20012;-75
2022/01/15 13:10:52;;;;;;;11.27;8.63;;;;;;;;;;6188163;23;20076;-76
2022/01/15 13:13:38;;;;;;;16.67;12.85;;;;;;;;;;6186044;23;20009;-76
2022/01/15 13:16:12;;;;;;;18.02;13.45;;;;;;;;;;6187200;23;20009;-77
2022/01/15 13:18:39;;;;;;;15.95;10.00;;;;;;;;;;6187473;23;19997;-76
2022/01/15 13:21:25;;;;;;;14.27;9.73;;;;;;;;;;6187237;23;19997;-78
2022/01/15 13:23:53;;;;;;;12.32;9.38;;;;;;;;;;6187789;23;20001;-79
2022/01/15 13:26:33;;;;;;;14.63;10.73;;;;;;;;;;6187277;23;20036;-77
2022/01/15 13:29:00;;;;;;;17.55;12.18;;;;;;;;;;6187170;23;20005;-78
2022/01/15 13:31:34;;;;;;;17.52;11.63;;;;;;;;;;6187475;23;20016;-77
2022/01/15 13:34:19;;;;;;;19.90;13.27;;;;;;;;;;6187333;23;20004;-76
2022/01/15 13:36:46;;;;;;;17.00;11.23;;;;;;;;;;6187495;23;20003;-77
2022/01/15 13:39:15;;;;;;;18.83;13.10;;;;;;;;;;6186948;23;20017;-77
2022/01/15 13:41:42;;;;;;;22.75;14.65;;;;;;;;;;6187331;23;20068;-77
2022/01/15 13:44:09;;;;;;;15.77;9.98;;;;;;;;;;6187079;23;19997;-77
2022/01/15 13:46:42;;;;;;;14.95;9.38;;;;;;;;;;6185714;23;20432;-79
2022/01/15 13:49:10;;;;;;;18.63;13.05;;;;;;;;;;6185273;23;20028;-75
2022/01/15 13:54:32;;;;;;;14.40;9.45;;;;;;;;;;6185611;23;20482;-72
2022/01/15 13:57:03;;;;;;;16.70;10.93;;;;;;;;;;6184934;23;20007;-72
2022/01/15 13:59:58;;;;;;;16.77;10.52;;;;;;;;;;6159423;23;20382;-76
2022/01/15 14:02:16;;;;;;;15.68;10.27;;;;;;;;;;6179472;23;20021;-81
2022/01/15 14:04:42;;;;;;;16.60;9.75;;;;;;;;;;6185579;23;20001;-75
2022/01/15 14:07:10;;;;;;;12.40;9.32;;;;;;;;;;6158886;23;20009;-78
2022/01/15 14:09:38;;;;;;;16.40;9.90;;;;;;;;;;6159438;23;20009;-78
2022/01/15 14:12:06;;;;;;;11.98;8.63;;;;;;;;;;6184723;23;20016;-76
2022/01/15 14:14:34;;;;;;;13.73;9.02;;;;;;;;;;6185366;23;20028;-78
2022/01/15 14:17:02;;;;;;;13.75;9.68;;;;;;;;;;6185475;23;20012;-77
2022/01/15 14:21:57;;;;;;;14.60;10.73;;;;;;;;;;6196360;23;20468;-77
2022/01/15 14:24:27;;;;;;;14.52;9.25;;;;;;;;;;6186492;23;20458;-77
2022/01/15 14:27:00;;;;;;;13.60;9.70;;;;;;;;;;6186437;23;20005;-77
2022/01/15 14:29:28;;;;;;;20.30;13.25;;;;;;;;;;6186255;23;20427;-79
2022/01/15 14:31:58;;;;;;;14.40;10.15;;;;;;;;;;6186076;23;20009;-78
2022/01/15 14:34:25;;;;;;;16.05;10.85;;;;;;;;;;6186725;23;20001;-75
2022/01/15 14:36:51;;;;;;;13.00;9.70;;;;;;;;;;6186524;23;20448;-78
2022/01/15 14:39:18;;;;;;;14.88;10.50;;;;;;;;;;6186612;23;20012;-77
2022/01/15 14:41:45;;;;;;;13.20;9.40;;;;;;;;;;6186354;23;20005;-77
2022/01/15 14:44:12;;;;;;;15.15;10.88;;;;;;;;;;6186184;23;20001;-77
2022/01/15 14:46:39;;;;;;;15.38;10.25;;;;;;;;;;6186235;23;20133;-77
2022/01/15 14:49:05;;;;;;;15.30;10.70;;;;;;;;;;6186110;23;20509;-77
2022/01/15 14:51:31;;;;;;;15.35;10.60;;;;;;;;;;6159334;23;20013;-77
2022/01/15 14:53:57;;;;;;;13.25;9.70;;;;;;;;;;6186248;23;19997;-76
2022/01/15 14:56:30;;;;;;;16.85;11.20;;;;;;;;;;6185728;23;20001;-77
2022/01/15 14:58:57;;;;;;;17.33;12.52;;;;;;;;;;6186282;23;20008;-76
2022/01/15 15:01:24;;;;;;;17.30;13.00;;;;;;;;;;6186204;23;19997;-77
2022/01/15 15:03:50;;;;;;;16.33;11.68;;;;;;;;;;6185884;23;20329;-77
2022/01/15 15:06:16;;;;;;;15.40;10.48;;;;;;;;;;6159376;23;20449;-78
2022/01/15 15:08:45;;;;;;;15.82;9.65;;;;;;;;;;6186357;23;20306;-77
2022/01/15 15:11:17;;;;;;;15.70;10.50;;;;;;;;;;6186208;23;20043;-78
2022/01/15 15:13:43;;;;;;;16.23;12.13;;;;;;;;;;6186519;23;20066;-77
2022/01/15 15:16:14;;;;;;;18.40;11.68;;;;;;;;;;6186324;23;20005;-77
2022/01/15 15:18:41;;;;;;;18.90;13.52;;;;;;;;;;6185971;23;20435;-77
2022/01/15 15:21:17;;;;;;;19.38;14.23;;;;;;;;;;6159523;23;20004;-77
2022/01/15 15:23:45;;;;;;;26.45;17.90;;;;;;;;;;6185940;23;20000;-77
2022/01/15 15:26:11;;;;;;;23.08;15.27;;;;;;;;;;6186154;23;20001;-75
2022/01/15 15:28:38;;;;;;;21.60;13.93;;;;;;;;;;6186173;23;19997;-76
2022/01/15 15:31:12;;;;;;;20.75;14.45;;;;;;;;;;6185667;23;20036;-78
2022/01/15 15:33:45;;;;;;;17.48;11.52;;;;;;;;;;6185760;23;20004;-75
2022/01/15 15:36:11;;;;;;;17.52;11.45;;;;;;;;;;6185726;23;20060;-76
2022/01/15 15:38:41;;;;;;;19.45;12.80;;;;;;;;;;6185768;23;20008;-75
2022/01/15 15:41:12;;;;;;;17.73;12.80;;;;;;;;;;6185386;23;20013;-76
2022/01/15 15:43:38;;;;;;;18.25;11.77;;;;;;;;;;6185702;23;19997;-76
2022/01/15 15:46:04;;;;;;;20.58;12.57;;;;;;;;;;6186383;23;20055;-76
2022/01/15 15:48:30;;;;;;;18.38;12.98;;;;;;;;;;6185308;23;20005;-76
2022/01/15 15:50:57;;;;;;;19.25;13.52;;;;;;;;;;6185504;23;20091;-77
2022/01/15 15:53:23;;;;;;;19.48;13.20;;;;;;;;;;6185650;23;20001;-76
2022/01/15 15:55:49;;;;;;;20.20;12.75;;;;;;;;;;6185359;23;20012;-76
2022/01/15 15:58:15;;;;;;;18.17;12.15;;;;;;;;;;6185735;23;19997;-76
2022/01/15 16:00:43;;;;;;;22.98;15.55;;;;;;;;;;6186062;23;20566;-75
2022/01/15 16:03:09;;;;;;;18.65;14.23;;;;;;;;;;6186014;23;20001;-76
2022/01/15 16:05:38;;;;;;;16.85;12.82;;;;;;;;;;6185633;23;20369;-77
2022/01/15 16:08:05;;;;;;;17.90;12.93;;;;;;;;;;6185141;23;19997;-77